createdAt,value
2022-11-12T00:02:12.575Z,80.28
2022-11-12T00:04:42.967Z,80.03
2022-11-12T00:07:13.428Z,79.82
2022-11-12T00:09:43.914Z,80.21
2022-11-12T00:12:14.386Z,79.60
2022-11-12T00:14:44.762Z,79.73
2022-11-12T00:17:15.237Z,79.48
2022-11-12T00:19:45.568Z,79.29
2022-11-12T00:22:16.477Z,79.44
2022-11-12T00:24:46.889Z,79.27
2022-11-12T00:27:17.601Z,79.43
2022-11-12T00:29:48.122Z,79.16
2022-11-12T00:32:19.760Z,80.29
2022-11-12T00:34:50.103Z,80.66
2022-11-12T00:37:22.233Z,80.85
2022-11-12T00:39:52.631Z,81.33
2022-11-12T00:42:23.078Z,81.48
2022-11-12T00:44:53.429Z,81.90
2022-11-12T00:47:25.180Z,82.06
2022-11-12T00:49:55.683Z,82.16
2022-11-12T00:52:26.045Z,82.15
2022-11-12T00:54:56.387Z,82.24
2022-11-12T00:57:26.733Z,82.33
2022-11-12T00:59:57.216Z,82.19
2022-11-12T01:02:27.685Z,82.26
2022-11-12T01:04:58.074Z,82.20
2022-11-12T01:07:29.147Z,82.36
2022-11-12T01:09:59.562Z,82.38
2022-11-12T01:12:31.913Z,82.49
2022-11-12T01:15:02.667Z,82.44
2022-11-12T01:17:33.332Z,82.45
2022-11-12T01:20:03.958Z,82.57
2022-11-12T01:22:34.315Z,82.53
2022-11-12T01:25:05.117Z,82.49
2022-11-12T01:27:35.747Z,82.62
2022-11-12T01:30:06.805Z,82.51
2022-11-12T01:32:38.111Z,82.50
2022-11-12T01:35:08.764Z,82.23
2022-11-12T01:37:39.149Z,82.08
2022-11-12T01:40:10.810Z,81.92
2022-11-12T01:42:41.237Z,81.83
2022-11-12T01:45:16.330Z,81.95
2022-11-12T01:47:49.498Z,81.81
2022-11-12T01:50:32.341Z,80.94
2022-11-12T01:53:08.632Z,80.50
2022-11-12T01:55:39.469Z,80.68
2022-11-12T01:58:12.846Z,80.04
2022-11-12T02:00:43.889Z,79.93
2022-11-12T02:03:22.975Z,80.11
2022-11-12T02:05:56.430Z,79.80
2022-11-12T02:08:29.009Z,80.04
2022-11-12T02:10:59.462Z,79.98
2022-11-12T02:13:47.778Z,80.06
2022-11-12T02:16:18.237Z,80.03
2022-11-12T02:18:48.593Z,80.08
2022-11-12T02:21:23.917Z,79.93
2022-11-12T02:24:05.598Z,80.28
2022-11-12T02:26:38.602Z,80.36
2022-11-12T02:29:09.581Z,80.66
2022-11-12T02:31:40.128Z,80.73
2022-11-12T02:34:10.519Z,80.95
2022-11-12T02:36:40.964Z,80.50
2022-11-12T02:39:11.385Z,80.54
2022-11-12T02:41:42.042Z,80.49
2022-11-12T02:44:12.449Z,80.12
2022-11-12T02:46:42.787Z,80.34
2022-11-12T02:49:13.166Z,80.70
2022-11-12T02:51:43.707Z,80.90
2022-11-12T02:54:14.090Z,80.96
2022-11-12T02:56:44.468Z,81.07
2022-11-12T02:59:14.854Z,80.90
2022-11-12T03:01:45.089Z,81.01
2022-11-12T03:04:15.779Z,81.33
2022-11-12T03:06:46.257Z,81.19
2022-11-12T03:09:16.779Z,81.59
2022-11-12T03:11:47.087Z,81.56
2022-11-12T03:14:17.544Z,81.69
2022-11-12T03:16:47.958Z,81.57
2022-11-12T03:19:18.411Z,81.78
2022-11-12T03:21:48.833Z,81.71
2022-11-12T03:24:19.326Z,81.73
2022-11-12T03:26:49.705Z,81.85
2022-11-12T03:29:20.146Z,81.56
2022-11-12T03:31:50.518Z,81.52
2022-11-12T03:34:20.905Z,81.37
2022-11-12T03:36:51.266Z,81.13
2022-11-12T03:39:21.641Z,81.30
2022-11-12T03:41:52.023Z,81.28
2022-11-12T03:44:22.381Z,81.65
2022-11-12T03:46:52.680Z,81.10
2022-11-12T03:49:23.093Z,81.13
2022-11-12T03:51:53.467Z,81.32
2022-11-12T03:54:23.885Z,81.16
2022-11-12T03:56:54.253Z,81.22
2022-11-12T03:59:24.762Z,80.66
2022-11-12T04:01:55.157Z,81.08
2022-11-12T04:04:27.336Z,81.27
2022-11-12T04:07:15.586Z,81.74
2022-11-12T04:09:45.917Z,81.51
2022-11-12T04:12:34.109Z,81.29
2022-11-12T04:15:04.855Z,81.30
2022-11-12T04:17:53.422Z,81.32
2022-11-12T04:20:42.007Z,81.86
2022-11-12T04:23:12.386Z,82.04
2022-11-12T04:26:01.172Z,81.87
2022-11-12T04:28:31.557Z,82.39
2022-11-12T04:31:01.968Z,81.77
2022-11-12T04:33:32.526Z,81.62
2022-11-12T04:36:02.988Z,81.80
2022-11-12T04:38:33.449Z,82.08
2022-11-12T04:41:21.732Z,81.98
2022-11-12T04:44:10.417Z,81.85
2022-11-12T04:46:40.731Z,82.11
2022-11-12T04:49:11.158Z,82.07
2022-11-12T04:51:59.572Z,82.28
2022-11-12T04:54:29.975Z,82.35
2022-11-12T04:57:01.076Z,82.67
2022-11-12T04:59:31.481Z,82.69
2022-11-12T05:02:01.793Z,82.73
2022-11-12T05:04:32.205Z,82.60
2022-11-12T05:07:03.064Z,82.92
2022-11-12T05:09:33.695Z,83.13
2022-11-12T05:12:04.501Z,83.30
2022-11-12T05:14:34.928Z,83.40
2022-11-12T05:17:05.938Z,83.23
2022-11-12T05:19:36.295Z,83.13
2022-11-12T05:22:07.378Z,83.08
2022-11-12T05:24:43.050Z,83.42
2022-11-12T05:27:16.404Z,83.48
2022-11-12T05:29:47.453Z,83.52
2022-11-12T05:32:18.737Z,83.73
2022-11-12T05:34:49.117Z,83.63
2022-11-12T05:37:19.911Z,83.63
2022-11-12T05:39:50.314Z,83.85
2022-11-12T05:42:20.669Z,83.76
2022-11-12T05:44:51.031Z,84.06
2022-11-12T05:47:21.367Z,83.82
2022-11-12T05:49:51.824Z,83.90
2022-11-12T05:52:22.199Z,84.29
2022-11-12T05:54:52.498Z,83.98
2022-11-12T05:57:22.855Z,84.09
2022-11-12T05:59:53.258Z,84.05
2022-11-12T06:02:23.670Z,83.99
2022-11-12T06:04:54.084Z,84.08
2022-11-12T06:07:24.456Z,83.80
2022-11-12T06:09:54.887Z,83.94
2022-11-12T06:12:25.257Z,84.03
2022-11-12T06:14:55.620Z,84.24
2022-11-12T06:17:26.001Z,84.26
2022-11-12T06:19:56.378Z,83.97
2022-11-12T06:22:26.760Z,83.86
2022-11-12T06:24:57.226Z,83.87
2022-11-12T06:27:27.615Z,84.03
2022-11-12T06:29:58.059Z,84.01
2022-11-12T06:32:28.553Z,84.02
2022-11-12T06:34:58.930Z,84.11
2022-11-12T06:37:29.330Z,83.83
2022-11-12T06:39:59.699Z,84.09
2022-11-12T06:42:30.119Z,83.82
2022-11-12T06:45:00.563Z,83.75
2022-11-12T06:47:31.122Z,83.80
2022-11-12T06:50:02.346Z,84.09
2022-11-12T06:52:32.747Z,83.78
2022-11-12T06:55:03.120Z,83.66
2022-11-12T06:57:33.893Z,83.93
2022-11-12T07:00:04.469Z,83.76
2022-11-12T07:02:34.843Z,83.40
2022-11-12T07:05:05.482Z,83.42
2022-11-12T07:07:36.221Z,83.34
2022-11-12T07:10:07.422Z,83.13
2022-11-12T07:12:37.804Z,83.03
2022-11-12T07:15:08.944Z,82.96
2022-11-12T07:17:39.338Z,82.65
2022-11-12T07:20:11.100Z,82.56
2022-11-12T07:22:41.472Z,82.50
2022-11-12T07:25:11.872Z,82.23
2022-11-12T07:27:42.547Z,81.87
2022-11-12T07:30:13.469Z,81.52
2022-11-12T07:32:48.306Z,81.46
2022-11-12T07:35:15.976Z,81.87
2022-11-12T07:37:46.478Z,81.67
2022-11-12T07:40:17.338Z,81.25
2022-11-12T07:42:47.704Z,81.26
2022-11-12T07:45:18.184Z,81.45
2022-11-12T07:47:48.559Z,81.21
2022-11-12T07:50:18.917Z,81.30
2022-11-12T07:52:49.233Z,81.02
2022-11-12T07:55:19.679Z,80.84
2022-11-12T07:57:49.989Z,80.92
2022-11-12T08:00:20.633Z,80.98
2022-11-12T08:02:51.121Z,80.85
2022-11-12T08:05:21.798Z,80.47
2022-11-12T08:07:52.423Z,80.22
2022-11-12T08:10:23.145Z,80.29
2022-11-12T08:12:55.114Z,79.87
2022-11-12T08:15:25.737Z,79.89
2022-11-12T08:17:56.291Z,79.81
2022-11-12T08:20:27.084Z,78.90
2022-11-12T08:23:02.034Z,78.71
2022-11-12T08:25:32.451Z,78.67
2022-11-12T08:28:02.993Z,78.31
2022-11-12T08:30:33.816Z,78.77
2022-11-12T08:33:06.935Z,78.01
2022-11-12T08:35:39.512Z,77.99
2022-11-12T08:38:10.836Z,77.52
2022-11-12T08:40:41.756Z,76.71
2022-11-12T08:43:12.305Z,76.22
2022-11-12T08:45:43.287Z,76.52
2022-11-12T08:48:15.259Z,76.41
2022-11-12T08:50:45.648Z,75.50
2022-11-12T08:53:16.052Z,74.63
2022-11-12T08:55:46.477Z,74.99
2022-11-12T08:58:16.864Z,75.03
2022-11-12T09:00:47.848Z,74.93
2022-11-12T09:03:20.666Z,74.57
2022-11-12T09:05:52.038Z,73.05
2022-11-12T09:08:25.983Z,69.61
2022-11-12T09:10:59.225Z,67.46
2022-11-12T09:13:30.013Z,61.69
2022-11-12T09:16:06.692Z,59.49
2022-11-12T09:18:37.413Z,60.46
2022-11-12T09:21:12.895Z,61.08
2022-11-12T09:23:43.320Z,62.77
2022-11-12T09:26:13.811Z,61.76
2022-11-12T09:28:44.329Z,59.83
2022-11-12T09:31:14.717Z,58.20
2022-11-12T09:33:45.023Z,55.09
2022-11-12T09:36:16.993Z,55.52
2022-11-12T09:38:47.373Z,56.98
2022-11-12T09:41:26.761Z,58.36
2022-11-12T09:44:00.253Z,56.54
2022-11-12T09:46:33.732Z,55.00
2022-11-12T09:49:22.162Z,54.26
2022-11-12T09:51:55.750Z,55.89
2022-11-12T09:54:35.628Z,59.42
2022-11-12T09:57:08.584Z,61.88
2022-11-12T09:59:43.030Z,64.02
2022-11-12T10:02:23.511Z,64.98
2022-11-12T10:05:02.392Z,61.56
2022-11-12T10:07:55.538Z,62.30
2022-11-12T10:10:29.046Z,63.21
2022-11-12T10:13:08.680Z,64.78
2022-11-12T10:16:30.366Z,65.88
2022-11-12T10:19:12.927Z,65.32
2022-11-12T10:21:55.072Z,66.48
2022-11-12T10:24:26.904Z,67.09
2022-11-12T10:26:58.573Z,66.72
2022-11-12T10:29:50.350Z,66.20
2022-11-12T10:32:20.901Z,67.62
2022-11-12T10:34:51.427Z,67.35
2022-11-12T10:37:42.307Z,66.94
2022-11-12T10:40:24.567Z,67.82
2022-11-12T10:43:03.739Z,66.95
2022-11-12T10:45:34.337Z,67.04
2022-11-12T10:48:05.001Z,66.45
2022-11-12T10:50:43.483Z,66.17
2022-11-12T10:53:14.380Z,66.28
2022-11-12T10:56:00.217Z,65.83
2022-11-12T10:58:30.991Z,65.54
2022-11-12T11:01:04.236Z,65.50
2022-11-12T11:03:49.354Z,65.31
2022-11-12T11:06:23.043Z,64.89
2022-11-12T11:09:11.327Z,64.67
2022-11-12T11:11:50.626Z,63.94
2022-11-12T11:14:32.881Z,63.52
2022-11-12T11:17:08.630Z,63.72
2022-11-12T11:19:42.412Z,63.10
2022-11-12T11:22:18.787Z,62.16
2022-11-12T11:24:52.207Z,62.53
2022-11-12T11:27:51.329Z,62.15
2022-11-12T11:30:22.994Z,62.48
2022-11-12T11:33:08.372Z,62.35
2022-11-12T11:36:05.693Z,63.01
2022-11-12T11:39:06.528Z,62.88
2022-11-12T11:41:59.975Z,62.86
2022-11-12T11:44:52.777Z,60.60
2022-11-12T11:47:38.652Z,61.52
2022-11-12T11:50:01.334Z,62.43
2022-11-12T11:52:40.652Z,62.67
2022-11-12T11:55:16.588Z,64.04
2022-11-12T11:58:04.947Z,65.07
2022-11-12T12:00:58.510Z,63.99
2022-11-12T12:03:34.603Z,65.36
2022-11-12T12:06:22.964Z,63.22
2022-11-12T12:09:20.703Z,62.04
2022-11-12T12:11:59.876Z,61.50
2022-11-12T12:14:51.161Z,61.61
2022-11-12T12:17:39.577Z,61.99
2022-11-12T12:20:18.989Z,60.94
2022-11-12T12:22:58.104Z,58.55
2022-11-12T12:25:39.837Z,58.56
2022-11-12T12:28:16.034Z,59.16
2022-11-12T12:30:49.431Z,59.95
2022-11-12T12:33:39.691Z,60.45
2022-11-12T12:36:13.589Z,59.20
2022-11-12T12:39:03.404Z,57.92
2022-11-12T12:41:45.403Z,56.87
2022-11-12T12:44:15.837Z,56.09
2022-11-12T12:46:49.240Z,55.02
2022-11-12T12:49:22.691Z,53.71
2022-11-12T12:51:55.959Z,51.92
2022-11-12T12:54:40.516Z,50.59
2022-11-12T12:57:35.040Z,49.23
2022-11-12T13:00:34.375Z,48.21
2022-11-12T13:03:05.271Z,49.56
2022-11-12T13:05:42.770Z,51.36
2022-11-12T13:08:21.669Z,54.27
2022-11-12T13:10:52.533Z,55.87
2022-11-12T13:13:31.745Z,56.84
2022-11-12T13:16:00.590Z,57.95
2022-11-12T13:18:43.171Z,57.13
2022-11-12T13:21:21.885Z,59.58
2022-11-12T13:24:07.262Z,58.70
2022-11-12T13:26:46.856Z,59.61
2022-11-12T13:29:29.534Z,59.60
2022-11-12T13:32:29.396Z,57.65
2022-11-12T13:35:22.881Z,57.21
2022-11-12T13:38:05.828Z,59.22
2022-11-12T13:41:00.708Z,62.52
2022-11-12T13:43:39.463Z,63.46
2022-11-12T13:46:12.931Z,64.40
2022-11-12T13:48:49.786Z,65.97
2022-11-12T13:51:23.229Z,66.86
2022-11-12T13:53:53.628Z,67.87
2022-11-12T13:56:32.893Z,69.34
2022-11-12T13:59:18.273Z,68.47
2022-11-12T14:01:50.778Z,70.12
2022-11-12T14:04:24.423Z,70.53
2022-11-12T14:07:06.756Z,71.04
2022-11-12T14:09:43.506Z,72.19
2022-11-12T14:12:41.114Z,71.16
2022-11-12T14:15:29.822Z,72.55
2022-11-12T14:18:15.084Z,71.46
2022-11-12T14:20:46.108Z,72.79
2022-11-12T14:23:24.500Z,72.27
2022-11-12T14:25:54.159Z,72.81
2022-11-12T14:28:33.244Z,73.49
2022-11-12T14:31:05.202Z,73.93
2022-11-12T14:33:35.783Z,74.20
2022-11-12T14:36:09.395Z,74.67
2022-11-12T14:38:43.205Z,75.65
2022-11-12T14:41:29.133Z,75.25
2022-11-12T14:44:12.592Z,75.45
2022-11-12T14:46:46.389Z,75.82
2022-11-12T14:49:22.574Z,76.31
2022-11-12T14:51:55.564Z,76.77
2022-11-12T14:54:35.042Z,77.51
2022-11-12T14:57:06.161Z,77.52
2022-11-12T14:59:37.414Z,78.08
2022-11-12T15:02:36.872Z,78.57
2022-11-12T15:04:54.393Z,78.55
2022-11-12T15:07:29.870Z,79.13
2022-11-12T15:10:01.340Z,79.46
2022-11-12T15:12:34.376Z,79.65
2022-11-12T15:15:20.943Z,80.22
2022-11-12T15:17:59.736Z,80.22
2022-11-12T15:20:30.688Z,80.53
2022-11-12T15:23:01.296Z,80.90
2022-11-12T15:25:32.584Z,80.94
2022-11-12T15:28:23.544Z,81.32
2022-11-12T15:31:20.813Z,81.36
2022-11-12T15:33:51.226Z,81.61
2022-11-12T15:36:24.197Z,81.73
2022-11-12T15:38:55.557Z,82.05
2022-11-12T15:41:31.308Z,81.77
2022-11-12T15:44:02.037Z,81.99
2022-11-12T15:46:33.025Z,81.96
2022-11-12T15:49:03.479Z,82.23
2022-11-12T15:51:33.893Z,82.48
2022-11-12T15:54:04.430Z,82.61
2022-11-12T15:56:35.052Z,82.82
2022-11-12T15:59:05.776Z,82.79
2022-11-12T16:01:36.187Z,82.88
2022-11-12T16:04:06.585Z,83.20
2022-11-12T16:06:37.054Z,83.11
2022-11-12T16:09:07.391Z,83.36
2022-11-12T16:11:37.873Z,83.28
2022-11-12T16:14:14.054Z,83.57
2022-11-12T16:16:44.461Z,83.60
2022-11-12T16:19:16.653Z,83.59
2022-11-12T16:21:47.008Z,83.75
2022-11-12T16:24:17.474Z,83.77
2022-11-12T16:26:47.950Z,84.03
2022-11-12T16:29:18.443Z,83.94
2022-11-12T16:31:48.944Z,84.27
2022-11-12T16:34:19.350Z,84.23
2022-11-12T16:36:50.026Z,84.20
2022-11-12T16:39:20.391Z,84.25
2022-11-12T16:41:51.017Z,84.38
2022-11-12T16:44:21.456Z,84.41
2022-11-12T16:46:51.862Z,84.36
2022-11-12T16:49:22.283Z,84.41
2022-11-12T16:51:52.658Z,84.49
2022-11-12T16:54:23.056Z,84.58
2022-11-12T16:56:53.462Z,84.70
2022-11-12T16:59:23.949Z,84.73
2022-11-12T17:01:54.386Z,84.84
2022-11-12T17:04:27.916Z,84.93
2022-11-12T17:06:58.284Z,84.99
2022-11-12T17:09:28.960Z,85.13
2022-11-12T17:11:59.466Z,85.05
2022-11-12T17:14:29.792Z,85.27
2022-11-12T17:17:00.440Z,85.34
2022-11-12T17:19:30.858Z,85.26
2022-11-12T17:22:01.380Z,85.30
2022-11-12T17:24:31.835Z,85.55
2022-11-12T17:27:02.365Z,85.59
2022-11-12T17:29:32.814Z,85.56
2022-11-12T17:32:03.864Z,85.61
2022-11-12T17:34:34.290Z,85.74
2022-11-12T17:37:04.812Z,85.71
2022-11-12T17:39:35.412Z,85.75
2022-11-12T17:42:08.981Z,85.96
2022-11-12T17:44:39.295Z,85.81
2022-11-12T17:47:12.933Z,85.94
2022-11-12T17:49:43.546Z,86.07
2022-11-12T17:52:15.430Z,85.81
2022-11-12T17:54:45.764Z,85.88
2022-11-12T17:57:16.354Z,85.99
2022-11-12T17:59:46.743Z,86.11
2022-11-12T18:02:17.125Z,86.18
2022-11-12T18:04:47.557Z,86.19
2022-11-12T18:07:18.054Z,86.36
2022-11-12T18:09:48.453Z,86.34
2022-11-12T18:12:18.844Z,86.34
2022-11-12T18:14:49.235Z,86.28
2022-11-12T18:17:19.577Z,86.30
2022-11-12T18:19:49.897Z,86.25
2022-11-12T18:22:20.718Z,86.32
2022-11-12T18:24:52.703Z,86.44
2022-11-12T18:27:23.245Z,86.52
2022-11-12T18:29:53.841Z,86.59
2022-11-12T18:32:24.236Z,86.56
2022-11-12T18:34:54.685Z,86.56
2022-11-12T18:37:25.165Z,86.61
2022-11-12T18:39:56.159Z,86.99
2022-11-12T18:42:26.541Z,87.15
2022-11-12T18:44:56.936Z,87.16
2022-11-12T18:47:27.311Z,87.25
2022-11-12T18:50:02.943Z,87.16
2022-11-12T18:52:31.878Z,87.15
2022-11-12T18:55:03.026Z,87.23
2022-11-12T18:57:33.483Z,87.17
2022-11-12T19:00:04.742Z,87.23
2022-11-12T19:02:35.238Z,87.47
2022-11-12T19:05:06.039Z,87.53
2022-11-12T19:07:36.379Z,87.57
2022-11-12T19:10:13.506Z,87.41
2022-11-12T19:12:42.360Z,87.29
2022-11-12T19:15:12.953Z,87.31
2022-11-12T19:17:43.889Z,87.35
2022-11-12T19:20:14.252Z,87.48
2022-11-12T19:22:44.688Z,87.45
2022-11-12T19:25:15.233Z,87.47
2022-11-12T19:27:45.632Z,87.56
2022-11-12T19:30:16.812Z,87.52
2022-11-12T19:32:47.313Z,87.57
2022-11-12T19:35:17.764Z,87.53
2022-11-12T19:37:48.423Z,87.61
2022-11-12T19:40:19.220Z,87.65
2022-11-12T19:42:49.821Z,87.57
2022-11-12T19:45:20.342Z,87.61
2022-11-12T19:47:52.358Z,87.63
2022-11-12T19:50:24.813Z,87.75
2022-11-12T19:52:55.131Z,87.72
2022-11-12T19:55:27.251Z,87.71
2022-11-12T19:57:57.935Z,87.66
2022-11-12T20:00:28.330Z,87.75
2022-11-12T20:02:59.672Z,87.70
2022-11-12T20:05:31.288Z,87.66
2022-11-12T20:08:01.885Z,87.57
2022-11-12T20:10:32.265Z,87.52
2022-11-12T20:13:03.327Z,87.38
2022-11-12T20:15:33.720Z,87.19
2022-11-12T20:18:04.187Z,87.13
2022-11-12T20:20:34.606Z,86.99
2022-11-12T20:23:05.065Z,86.95
2022-11-12T20:25:35.425Z,86.87
2022-11-12T20:28:06.082Z,86.69
2022-11-12T20:30:36.488Z,86.60
2022-11-12T20:33:06.973Z,86.49
2022-11-12T20:35:56.668Z,86.46
2022-11-12T20:38:30.159Z,86.48
2022-11-12T20:41:02.755Z,86.60
2022-11-12T20:43:35.721Z,86.47
2022-11-12T20:46:06.284Z,86.58
2022-11-12T20:48:42.810Z,86.64
2022-11-12T20:51:24.317Z,86.92
2022-11-12T20:53:56.042Z,87.04
2022-11-12T20:56:26.868Z,87.10
2022-11-12T20:58:58.000Z,87.09
2022-11-12T21:01:30.474Z,87.18
2022-11-12T21:04:00.995Z,87.21
2022-11-12T21:06:31.411Z,87.46
2022-11-12T21:09:01.911Z,87.55
2022-11-12T21:11:32.386Z,87.58
2022-11-12T21:14:02.728Z,87.67
2022-11-12T21:16:33.113Z,87.75
2022-11-12T21:19:06.256Z,87.87
2022-11-12T21:21:37.088Z,87.94
2022-11-12T21:24:08.028Z,87.98
2022-11-12T21:26:38.413Z,87.97
2022-11-12T21:29:08.751Z,88.04
2022-11-12T21:31:39.140Z,88.10
2022-11-12T21:34:11.218Z,88.09
2022-11-12T21:36:41.683Z,88.12
2022-11-12T21:39:12.123Z,88.18
2022-11-12T21:41:42.587Z,88.04
2022-11-12T21:44:12.996Z,88.11
2022-11-12T21:46:43.383Z,88.17
2022-11-12T21:49:13.806Z,88.23
2022-11-12T21:51:44.216Z,88.14
2022-11-12T21:54:15.300Z,88.16
2022-11-12T21:56:45.671Z,88.20
2022-11-12T21:59:16.075Z,88.33
2022-11-12T22:01:46.547Z,88.39
2022-11-12T22:04:18.415Z,88.37
2022-11-12T22:06:49.183Z,88.35
2022-11-12T22:09:19.778Z,88.27
2022-11-12T22:11:50.278Z,88.38
2022-11-12T22:14:20.727Z,88.45
2022-11-12T22:16:51.447Z,88.40
2022-11-12T22:19:23.641Z,88.43
2022-11-12T22:21:54.035Z,88.36
2022-11-12T22:24:24.697Z,88.42
2022-11-12T22:26:55.421Z,88.32
2022-11-12T22:29:25.867Z,88.38
2022-11-12T22:31:56.254Z,88.38
2022-11-12T22:34:26.647Z,88.32
2022-11-12T22:36:56.948Z,88.28
2022-11-12T22:39:27.348Z,88.22
2022-11-12T22:41:57.643Z,88.14
2022-11-12T22:44:29.011Z,88.12
2022-11-12T22:46:59.377Z,87.96
2022-11-12T22:49:30.219Z,87.77
2022-11-12T22:52:00.599Z,87.66
2022-11-12T22:54:31.052Z,87.51
2022-11-12T22:57:01.474Z,87.31
2022-11-12T22:59:31.857Z,87.16
2022-11-12T23:02:02.271Z,86.91
2022-11-12T23:04:32.704Z,86.77
2022-11-12T23:07:03.170Z,86.60
2022-11-12T23:09:33.852Z,86.34
2022-11-12T23:12:04.450Z,86.22
2022-11-12T23:14:35.296Z,86.07
2022-11-12T23:17:05.594Z,85.94
2022-11-12T23:19:35.991Z,85.80
2022-11-12T23:22:08.043Z,85.95
2022-11-12T23:24:38.495Z,85.83
2022-11-12T23:27:08.975Z,85.78
2022-11-12T23:29:39.382Z,85.68
2022-11-12T23:32:09.766Z,85.50
2022-11-12T23:34:40.173Z,85.43
2022-11-12T23:37:10.549Z,85.45
2022-11-12T23:39:40.835Z,85.29
2022-11-12T23:42:11.339Z,85.14
2022-11-12T23:44:41.824Z,85.06
2022-11-12T23:47:12.147Z,85.35
2022-11-12T23:49:42.549Z,85.51
2022-11-12T23:52:12.876Z,85.28
2022-11-12T23:54:43.276Z,85.20
2022-11-12T23:57:13.708Z,85.07
2022-11-12T23:59:44.091Z,84.91
